Time;durP1;ratioP1;P1;durP2;ratioP2;P2;SDS_P1;SDS_P2;PMS_P1;PMS_P2;Temp;Humidity;BMP_temperature;BMP_pressure;BME280_temperature;BME280_humidity;BME280_pressure;Samples;Min_cycle;Max_cycle;Signal;HPM_P1;HPM_P2
2023/01/22 00:01:32;;;;;;;;;;;;;;;9.03;49.84;102825.47;6211262;23;19994;-86
2023/01/22 00:03:58;;;;;;;;;;;;;;;9.02;50.08;102823.81;6212185;22;20216;-86
2023/01/22 00:06:23;;;;;;;;;;;;;;;8.99;49.93;102829.53;6210938;23;19916;-86
2023/01/22 00:08:49;;;;;;;;;;;;;;;8.95;49.93;102828.22;6209952;23;19982;-87
2023/01/22 00:11:16;;;;;;;;;;;;;;;8.95;50.05;102828.22;6211808;23;19912;-87
2023/01/22 00:13:41;;;;;;;;;;;;;;;8.94;50.09;102826.56;6211882;23;19918;-87
2023/01/22 00:16:07;;;;;;;;;;;;;;;8.95;50.26;102838.91;6210374;23;20263;-87
2023/01/22 00:18:33;;;;;;;;;;;;;;;8.97;50.04;102834.22;6211165;23;19948;-86
2023/01/22 00:20:58;;;;;;;;;;;;;;;8.96;49.77;102828.03;6211476;23;19936;-87
2023/01/22 00:23:24;;;;;;;;;;;;;;;8.96;50.16;102830.72;6210160;23;19973;-86
2023/01/22 00:25:49;;;;;;;;;;;;;;;8.96;50.13;102835.22;6210331;23;19983;-86
2023/01/22 00:28:15;;;;;;;;;;;;;;;8.96;50.19;102830.72;6211376;23;20298;-85
2023/01/22 00:30:41;;;;;;;;;;;;;;;8.97;50.12;102837.72;6210287;23;20078;-87
2023/01/22 00:33:07;;;;;;;;;;;;;;;8.99;50.23;102834.88;6211637;23;19919;-87
2023/01/22 00:35:33;;;;;;;;;;;;;;;8.98;50.26;102828.72;6210878;23;19912;-86
2023/01/22 00:37:58;;;;;;;;;;;;;;;8.99;50.20;102829.53;6210898;23;20378;-87
2023/01/22 00:40:24;;;;;;;;;;;;;;;8.98;50.04;102828.72;6211318;23;19908;-86
2023/01/22 00:42:49;;;;;;;;;;;;;;;8.96;49.90;102840.56;6210579;23;19915;-86
2023/01/22 00:45:15;;;;;;;;;;;;;;;8.97;50.01;102832.38;6210604;23;19919;-87
2023/01/22 00:47:40;;;;;;;;;;;;;;;9.00;49.77;102836.53;6210409;23;19986;-87
2023/01/22 00:50:05;;;;;;;;;;;;;;;8.98;50.18;102838.56;6210980;23;19915;-86
2023/01/22 00:52:31;;;;;;;;;;;;;;;8.98;50.02;102838.56;6210327;23;19943;-87
2023/01/22 00:54:56;;;;;;;;;;;;;;;8.99;50.04;102840.22;6210246;23;19994;-86
2023/01/22 00:57:25;;;;;;;;;;;;;;;8.96;50.07;102843.25;6210192;23;19966;-86
2023/01/22 00:59:51;;;;;;;;;;;;;;;8.96;49.93;102837.91;6210347;23;19908;-86
2023/01/22 01:02:16;;;;;;;;;;;;;;;8.95;49.78;102842.44;6210654;23;19919;-86
2023/01/22 01:04:42;;;;;;;;;;;;;;;8.94;49.99;102843.44;6210300;23;19920;-86
2023/01/22 01:07:09;;;;;;;;;;;;;;;8.93;50.12;102830.25;6210999;23;20316;-86
2023/01/22 01:09:35;;;;;;;;;;;;;;;8.92;50.04;102839.31;6210673;23;19908;-86
2023/01/22 01:12:00;;;;;;;;;;;;;;;8.91;49.97;102837.66;6210273;23;20221;-87
2023/01/22 01:14:26;;;;;;;;;;;;;;;8.87;49.79;102834.53;6210841;23;19908;-86
2023/01/22 01:16:51;;;;;;;;;;;;;;;8.86;49.84;102834.72;6210427;23;19954;-86
2023/01/22 01:19:19;;;;;;;;;;;;;;;8.86;50.09;102835.53;6210452;23;19907;-85
2023/01/22 01:21:48;;;;;;;;;;;;;;;8.85;49.90;102836.56;6210651;23;19912;-86
2023/01/22 01:24:13;;;;;;;;;;;;;;;8.86;50.27;102838.22;6209450;23;19916;-86
2023/01/22 01:26:39;;;;;;;;;;;;;;;8.86;50.14;102834.72;6209597;23;19931;-85
2023/01/22 01:29:06;;;;;;;;;;;;;;;8.86;50.14;102834.72;6209837;23;19908;-86
2023/01/22 01:31:32;;;;;;;;;;;;;;;8.88;50.18;102843.38;6209199;23;19919;-86
2023/01/22 01:36:32;;;;;;;;;;;;;;;8.88;50.16;102844.19;6226308;22;19924;-86
2023/01/22 01:38:58;;;;;;;;;;;;;;;8.87;50.31;102839.03;6239516;23;19918;-86
2023/01/22 01:41:26;;;;;;;;;;;;;;;8.86;50.07;102840.06;6239399;23;19911;-86
2023/01/22 01:44:22;;;;;;;;;;;;;;;8.86;50.19;102845.41;6232900;23;19940;-86
2023/01/22 01:46:56;;;;;;;;;;;;;;;8.84;50.43;102842.09;6209970;23;20342;-87
2023/01/22 01:49:42;;;;;;;;;;;;;;;8.83;49.93;102845.78;6219345;22;20389;-87
2023/01/22 01:52:10;;;;;;;;;;;;;;;8.82;50.29;102847.63;6240828;22;19912;-87
2023/01/22 01:54:39;;;;;;;;;;;;;;;8.83;50.28;102854.63;6241542;22;19908;-87
2023/01/22 01:57:13;;;;;;;;;;;;;;;8.83;50.22;102853.78;6241492;22;19912;-87
2023/01/22 01:59:39;;;;;;;;;;;;;;;8.82;50.25;102855.63;6228310;22;19987;-87
2023/01/22 02:02:05;;;;;;;;;;;;;;;8.82;50.10;102855.63;6212500;23;19991;-87
2023/01/22 02:04:32;;;;;;;;;;;;;;;8.82;49.82;102861.00;6211492;23;19919;-87
2023/01/22 02:06:58;;;;;;;;;;;;;;;8.82;49.99;102865.50;6212939;23;19915;-87
2023/01/22 02:09:23;;;;;;;;;;;;;;;8.79;49.96;102867.50;6209466;23;19907;-87
2023/01/22 02:11:50;;;;;;;;;;;;;;;8.77;50.05;102866.84;6210561;23;20007;-88
2023/01/22 02:14:32;;;;;;;;;;;;;;;8.77;50.14;102874.06;6211689;23;19915;-88
2023/01/22 02:17:04;;;;;;;;;;;;;;;8.76;50.29;102875.91;6212213;23;19908;-88
2023/01/22 02:19:30;;;;;;;;;;;;;;;8.76;49.97;102878.56;6212986;23;19916;-88
2023/01/22 02:21:55;;;;;;;;;;;;;;;8.76;50.24;102875.91;6211323;23;19914;-88
2023/01/22 02:24:23;;;;;;;;;;;;;;;8.75;50.25;102881.44;6214093;23;19943;-87
2023/01/22 02:26:49;;;;;;;;;;;;;;;8.71;50.38;102880.97;6214860;23;19938;-86
2023/01/22 02:29:14;;;;;;;;;;;;;;;8.69;50.12;102880.31;6213864;23;20340;-86
2023/01/22 02:31:40;;;;;;;;;;;;;;;8.70;50.03;102881.16;6214989;23;19912;-87
2023/01/22 02:34:06;;;;;;;;;;;;;;;8.70;50.38;102883.81;6214168;23;20291;-87
2023/01/22 02:36:33;;;;;;;;;;;;;;;8.68;50.06;102883.19;6214631;23;19974;-86
2023/01/22 02:38:58;;;;;;;;;;;;;;;8.66;50.29;102883.38;6214509;23;19908;-86
2023/01/22 02:41:24;;;;;;;;;;;;;;;8.66;49.82;102882.53;6214364;23;20347;-87
2023/01/22 02:43:49;;;;;;;;;;;;;;;8.66;50.41;102886.03;6214073;23;19927;-86
2023/01/22 02:46:16;;;;;;;;;;;;;;;8.65;50.30;102881.72;6214438;23;19919;-86
2023/01/22 02:48:41;;;;;;;;;;;;;;;8.66;50.25;102882.53;6214120;23;19982;-87
2023/01/22 02:51:06;;;;;;;;;;;;;;;8.66;49.91;102888.72;6244606;23;19914;-86
2023/01/22 02:53:32;;;;;;;;;;;;;;;8.65;50.02;102887.06;6244312;23;20497;-87
2023/01/22 02:55:57;;;;;;;;;;;;;;;8.63;50.36;102888.25;6244182;23;19990;-87
2023/01/22 02:58:23;;;;;;;;;;;;;;;8.61;50.23;102895.59;6243934;23;19942;-86
2023/01/22 03:00:48;;;;;;;;;;;;;;;8.58;49.86;102894.13;6244134;22;19935;-86
2023/01/22 03:03:16;;;;;;;;;;;;;;;8.58;50.23;102894.13;6217204;23;19907;-86
2023/01/22 03:05:43;;;;;;;;;;;;;;;8.57;50.19;102888.97;6243441;23;20331;-86
2023/01/22 03:08:08;;;;;;;;;;;;;;;8.55;50.19;102902.50;6243343;23;19914;-86
2023/01/22 03:10:33;;;;;;;;;;;;;;;8.57;50.47;102899.66;6244076;22;19986;-86
2023/01/22 03:21:21;;;;;;;;;;;;;;;8.50;50.21;102896.06;6243582;23;19914;-86
2023/01/22 03:23:50;;;;;;;;;;;;;;;8.47;50.22;102899.94;6243967;23;20358;-86
2023/01/22 03:26:16;;;;;;;;;;;;;;;8.49;50.41;102903.25;6243186;23;19918;-86
2023/01/22 03:28:41;;;;;;;;;;;;;;;8.49;50.50;102897.91;6243869;22;19907;-86
2023/01/22 03:31:07;;;;;;;;;;;;;;;8.48;50.50;102898.91;6243743;23;19961;-86
2023/01/22 03:33:33;;;;;;;;;;;;;;;8.48;50.55;102901.59;6242458;23;19907;-86
2023/01/22 03:36:05;;;;;;;;;;;;;;;8.48;50.38;102901.59;6243312;23;19908;-87
2023/01/22 03:38:30;;;;;;;;;;;;;;;8.50;50.51;102904.91;6243483;22;19911;-86
2023/01/22 03:41:16;;;;;;;;;;;;;;;8.51;50.52;102901.22;6243162;23;20497;-86
2023/01/22 03:43:42;;;;;;;;;;;;;;;8.52;50.17;102905.56;6242603;23;19939;-86
2023/01/22 03:46:14;;;;;;;;;;;;;;;8.51;50.51;102906.56;6244228;23;20527;-86
2023/01/22 03:48:40;;;;;;;;;;;;;;;8.52;50.31;102912.75;6244851;22;19907;-86
2023/01/22 03:51:06;;;;;;;;;;;;;;;8.52;50.35;102908.22;6243807;23;19912;-86
2023/01/22 03:53:32;;;;;;;;;;;;;;;8.52;50.27;102910.91;6245792;23;19911;-86
2023/01/22 03:55:59;;;;;;;;;;;;;;;8.52;50.35;102913.56;6245407;23;19924;-86
2023/01/22 03:58:24;;;;;;;;;;;;;;;8.51;50.33;102901.22;6244928;23;19919;-86
2023/01/22 04:00:50;;;;;;;;;;;;;;;8.50;50.22;102902.25;6244000;22;19911;-86
2023/01/22 04:03:15;;;;;;;;;;;;;;;8.49;50.36;102903.25;6243091;23;19924;-86
2023/01/22 04:05:41;;;;;;;;;;;;;;;8.47;50.26;102906.09;6244994;23;19915;-86
2023/01/22 04:08:06;;;;;;;;;;;;;;;8.47;50.51;102907.94;6244630;23;19914;-86
2023/01/22 04:10:31;;;;;;;;;;;;;;;8.47;50.01;102905.28;6244825;22;19907;-85
2023/01/22 04:12:57;;;;;;;;;;;;;;;8.46;50.10;102901.78;6245097;23;19946;-86
2023/01/22 04:15:22;;;;;;;;;;;;;;;8.45;50.24;102905.47;6244472;23;20250;-86
2023/01/22 04:17:47;;;;;;;;;;;;;;;8.45;50.27;102902.78;6244414;23;19907;-86
2023/01/22 04:20:13;;;;;;;;;;;;;;;8.45;50.39;102907.31;6244418;22;19911;-86
2023/01/22 04:22:40;;;;;;;;;;;;;;;8.45;50.25;102918.00;6243987;23;19908;-86
2023/01/22 04:25:06;;;;;;;;;;;;;;;8.45;50.46;102913.47;6244812;23;20319;-87
2023/01/22 04:27:36;;;;;;;;;;;;;;;8.45;50.29;102916.16;6244848;23;19915;-86
2023/01/22 04:30:02;;;;;;;;;;;;;;;8.45;50.45;102918.00;6244782;22;20239;-85
2023/01/22 04:32:28;;;;;;;;;;;;;;;8.43;50.36;102919.97;6244306;23;19908;-85
2023/01/22 04:34:53;;;;;;;;;;;;;;;8.42;49.96;102918.31;6244949;23;19908;-86
2023/01/22 04:37:18;;;;;;;;;;;;;;;8.42;50.32;102921.00;6245104;23;19907;-87
2023/01/22 04:39:44;;;;;;;;;;;;;;;8.42;50.20;102919.16;6245110;22;20386;-87
2023/01/22 04:42:10;;;;;;;;;;;;;;;8.44;50.20;102916.34;6244745;23;19958;-86
2023/01/22 04:44:35;;;;;;;;;;;;;;;8.43;50.19;102920.81;6244495;23;19965;-86
2023/01/22 04:47:01;;;;;;;;;;;;;;;8.43;50.37;102928.00;6245050;23;20327;-87
2023/01/22 04:49:26;;;;;;;;;;;;;;;8.44;50.28;102924.34;6244139;22;19911;-86
2023/01/22 04:51:52;;;;;;;;;;;;;;;8.47;50.41;102934.66;6244681;23;19914;-86
2023/01/22 04:54:18;;;;;;;;;;;;;;;8.45;50.29;102931.34;6217438;23;19912;-85
2023/01/22 04:56:43;;;;;;;;;;;;;;;8.45;50.09;102926.84;6217588;23;19939;-86
2023/01/22 04:59:09;;;;;;;;;;;;;;;8.45;50.11;102928.69;6244076;22;19912;-86
2023/01/22 05:01:35;;;;;;;;;;;;;;;8.43;50.22;102936.84;6244797;23;19908;-86
2023/01/22 05:04:01;;;;;;;;;;;;;;;8.44;50.20;102937.69;6242050;23;19915;-86
2023/01/22 05:06:26;;;;;;;;;;;;;;;8.45;50.09;102945.53;6243842;23;19913;-87
2023/01/22 05:08:52;;;;;;;;;;;;;;;8.44;50.34;102946.53;6243804;22;19907;-87
2023/01/22 05:11:17;;;;;;;;;;;;;;;8.43;50.28;102941.34;6244294;23;19945;-86
2023/01/22 05:13:45;;;;;;;;;;;;;;;8.43;49.94;102944.84;6244512;23;19995;-86
2023/01/22 05:16:11;;;;;;;;;;;;;;;8.44;50.25;102949.22;6244243;23;19911;-86
2023/01/22 05:18:36;;;;;;;;;;;;;;;8.46;50.35;102954.38;6243856;22;19908;-86
2023/01/22 05:21:02;;;;;;;;;;;;;;;8.46;50.33;102960.56;6244300;23;19912;-85
2023/01/22 05:23:27;;;;;;;;;;;;;;;8.45;50.29;102961.56;6243907;23;19915;-86
2023/01/22 05:25:52;;;;;;;;;;;;;;;8.46;50.50;102965.06;6244036;23;19914;-85
2023/01/22 05:28:18;;;;;;;;;;;;;;;8.45;50.39;102963.41;6243668;23;20320;-86
2023/01/22 05:30:43;;;;;;;;;;;;;;;8.45;50.28;102966.91;6243885;22;19969;-86
2023/01/22 05:33:09;;;;;;;;;;;;;;;8.44;50.46;102967.09;6242324;23;19986;-85
2023/01/22 05:35:34;;;;;;;;;;;;;;;8.43;50.31;102974.25;6244159;23;19907;-86
2023/01/22 05:37:59;;;;;;;;;;;;;;;8.43;50.38;102976.09;6243461;23;19939;-87
2023/01/22 05:40:25;;;;;;;;;;;;;;;8.43;50.38;102978.75;6244201;22;19911;-86
2023/01/22 05:42:50;;;;;;;;;;;;;;;8.42;50.06;102977.09;6243916;23;20358;-86
2023/01/22 05:45:15;;;;;;;;;;;;;;;8.42;50.63;102977.94;6244109;23;19912;-87
2023/01/22 05:47:41;;;;;;;;;;;;;;;8.42;50.27;102987.78;6244117;23;20231;-86
2023/01/22 05:50:06;;;;;;;;;;;;;;;8.41;50.40;102978.94;6243877;22;19942;-87
2023/01/22 05:52:32;;;;;;;;;;;;;;;8.41;50.29;102980.78;6241239;23;19961;-87
2023/01/22 05:54:58;;;;;;;;;;;;;;;8.41;50.63;102986.13;6242544;23;19960;-87
2023/01/22 05:57:25;;;;;;;;;;;;;;;8.41;50.50;102988.78;6242187;23;19907;-87
2023/01/22 05:59:51;;;;;;;;;;;;;;;8.40;50.64;102990.63;6243682;22;19973;-86
2023/01/22 06:02:16;;;;;;;;;;;;;;;8.40;50.58;102993.31;6243662;23;19908;-86
2023/01/22 06:04:41;;;;;;;;;;;;;;;8.40;50.41;102992.47;6242151;23;20239;-87
2023/01/22 06:07:07;;;;;;;;;;;;;;;8.39;50.51;102997.00;6242608;23;19982;-87
2023/01/22 06:09:32;;;;;;;;;;;;;;;8.40;50.49;103003.16;6242748;22;19907;-86
2023/01/22 06:11:58;;;;;;;;;;;;;;;8.41;50.06;102996.81;6243484;23;20000;-87
2023/01/22 06:14:23;;;;;;;;;;;;;;;8.40;50.52;103006.66;6243563;23;19918;-86
2023/01/22 06:16:48;;;;;;;;;;;;;;;8.39;50.41;103004.16;6216715;23;19914;-87
2023/01/22 06:19:14;;;;;;;;;;;;;;;8.39;50.42;103017.53;6243195;22;19912;-86
2023/01/22 06:21:42;;;;;;;;;;;;;;;8.39;50.45;103014.84;6243412;23;20449;-86
2023/01/22 06:24:08;;;;;;;;;;;;;;;8.40;50.22;103011.19;6243854;23;19986;-86
2023/01/22 06:26:33;;;;;;;;;;;;;;;8.40;50.24;103016.50;6243156;23;20242;-87
2023/01/22 06:28:59;;;;;;;;;;;;;;;8.39;50.51;103021.03;6243403;22;19908;-86
2023/01/22 06:31:24;;;;;;;;;;;;;;;8.38;50.41;103023.88;6243293;23;20384;-86
2023/01/22 06:33:49;;;;;;;;;;;;;;;8.37;50.52;103025.72;6243818;23;19907;-87
2023/01/22 06:36:15;;;;;;;;;;;;;;;8.37;50.61;103023.06;6243741;23;20366;-86
2023/01/22 06:38:40;;;;;;;;;;;;;;;8.39;50.23;103033.56;6243250;22;19918;-87
2023/01/22 06:41:05;;;;;;;;;;;;;;;8.39;50.24;103038.91;6243800;23;19911;-86
2023/01/22 06:43:31;;;;;;;;;;;;;;;8.39;50.58;103038.91;6243865;23;20379;-86
2023/01/22 06:45:56;;;;;;;;;;;;;;;8.39;50.52;103038.91;6243640;23;20346;-87
2023/01/22 06:48:22;;;;;;;;;;;;;;;8.39;50.51;103041.56;6243167;23;19907;-85
2023/01/22 06:50:47;;;;;;;;;;;;;;;8.37;50.55;103047.09;6243255;22;19918;-86
2023/01/22 06:53:13;;;;;;;;;;;;;;;8.39;50.54;103049.59;6216731;23;20228;-85
2023/01/22 06:55:38;;;;;;;;;;;;;;;8.37;50.27;103054.28;6243846;23;19907;-86
2023/01/22 06:58:04;;;;;;;;;;;;;;;8.38;50.10;103053.25;6242796;23;20291;-86
2023/01/22 07:00:29;;;;;;;;;;;;;;;8.38;50.19;103053.25;6243830;22;19938;-87
2023/01/22 07:02:55;;;;;;;;;;;;;;;8.37;50.47;103055.09;6243121;23;19957;-86
2023/01/22 07:05:21;;;;;;;;;;;;;;;8.37;50.22;103064.97;6243228;23;19915;-86
2023/01/22 07:07:47;;;;;;;;;;;;;;;8.37;50.43;103062.28;6243449;23;19918;-87
2023/01/22 07:10:13;;;;;;;;;;;;;;;8.37;50.32;103072.97;6243296;22;19958;-86
2023/01/22 07:12:38;;;;;;;;;;;;;;;8.37;50.27;103068.47;6243469;23;20323;-86
2023/01/22 07:15:05;;;;;;;;;;;;;;;8.36;50.09;103066.81;6242999;23;19965;-87
2023/01/22 07:17:31;;;;;;;;;;;;;;;8.35;50.52;103070.47;6243068;23;19979;-86
2023/01/22 07:19:56;;;;;;;;;;;;;;;8.33;50.31;103071.63;6242980;22;20280;-86
2023/01/22 07:22:21;;;;;;;;;;;;;;;8.32;50.18;103076.16;6244658;23;19907;-86
2023/01/22 07:24:47;;;;;;;;;;;;;;;8.31;50.52;103076.34;6217842;23;19994;-86
2023/01/22 07:27:12;;;;;;;;;;;;;;;8.29;50.58;103089.03;6244720;23;19907;-86
2023/01/22 07:29:37;;;;;;;;;;;;;;;8.28;50.72;103082.03;6244767;22;19915;-87
2023/01/22 07:32:03;;;;;;;;;;;;;;;8.29;50.51;103079.19;6244534;23;19911;-85
2023/01/22 07:34:28;;;;;;;;;;;;;;;8.29;50.54;103089.88;6245062;23;19963;-86
2023/01/22 07:36:54;;;;;;;;;;;;;;;8.28;50.49;103095.38;6245005;23;19914;-87
2023/01/22 07:39:19;;;;;;;;;;;;;;;8.29;50.85;103092.53;6244764;22;19959;-86
2023/01/22 07:41:44;;;;;;;;;;;;;;;8.30;50.63;103085.34;6244451;23;19915;-86
2023/01/22 07:44:10;;;;;;;;;;;;;;;8.32;50.55;103083.34;6244667;23;19994;-85
2023/01/22 07:46:37;;;;;;;;;;;;;;;8.33;50.54;103085.00;6243849;23;19915;-86
2023/01/22 07:49:03;;;;;;;;;;;;;;;8.34;50.45;103084.00;6244222;22;19911;-86
2023/01/22 07:51:28;;;;;;;;;;;;;;;8.34;50.69;103071.50;6242509;23;20244;-85
2023/01/22 07:53:54;;;;;;;;;;;;;;;8.36;50.61;103079.31;6242770;23;19982;-86
2023/01/22 07:56:19;;;;;;;;;;;;;;;8.34;50.54;103079.50;6242739;23;19907;-86
2023/01/22 07:58:45;;;;;;;;;;;;;;;8.34;50.32;103086.69;6242398;22;19954;-85
2023/01/22 08:01:10;;;;;;;;;;;;;;;8.32;50.38;103081.50;6242068;23;19911;-86
2023/01/22 08:03:36;;;;;;;;;;;;;;;8.32;50.59;103088.69;6242134;23;19911;-85
2023/01/22 08:06:06;;;;;;;;;;;;;;;8.33;50.55;103085.81;6243185;23;19958;-85
2023/01/22 08:08:32;;;;;;;;;;;;;;;8.34;50.58;103087.53;6216277;22;19914;-85
2023/01/22 08:10:58;;;;;;;;;;;;;;;8.35;50.65;103086.50;6243145;23;19908;-86
2023/01/22 08:13:23;;;;;;;;;;;;;;;8.36;50.38;103095.34;6242569;23;19908;-85
2023/01/22 08:15:50;;;;;;;;;;;;;;;8.36;50.77;103095.34;6242090;23;19935;-86
2023/01/22 08:18:15;;;;;;;;;;;;;;;8.38;50.79;103104.03;6243375;23;20015;-86
2023/01/22 08:20:41;;;;;;;;;;;;;;;8.41;50.39;103103.66;6243703;22;20446;-86
2023/01/22 08:23:06;;;;;;;;;;;;;;;8.42;50.47;103106.16;6241512;23;19946;-86
2023/01/22 08:25:31;;;;;;;;;;;;;;;8.44;50.36;103114.03;6243859;23;19912;-85
2023/01/22 08:28:00;;;;;;;;;;;;;;;8.44;50.25;103112.19;6243410;23;20469;-86
2023/01/22 08:30:28;;;;;;;;;;;;;;;8.44;50.57;103111.34;6240353;22;20530;-86
2023/01/22 08:32:54;;;;;;;;;;;;;;;8.44;50.53;103109.50;6242770;23;19907;-86
2023/01/22 08:35:19;;;;;;;;;;;;;;;8.48;50.26;103118.84;6241416;23;20378;-86
2023/01/22 08:37:45;;;;;;;;;;;;;;;8.51;50.73;103125.66;6242658;23;19915;-86
2023/01/22 08:40:10;;;;;;;;;;;;;;;8.53;50.42;103123.63;6242978;22;20316;-86
2023/01/22 08:42:36;;;;;;;;;;;;;;;8.55;50.52;103124.28;6243168;23;19908;-86
2023/01/22 08:45:01;;;;;;;;;;;;;;;8.55;50.36;103126.97;6241384;23;19915;-85
2023/01/22 08:47:27;;;;;;;;;;;;;;;8.55;50.46;103132.31;6241993;23;19907;-86
2023/01/22 08:49:52;;;;;;;;;;;;;;;8.56;50.32;103141.97;6243436;22;19911;-86
2023/01/22 08:52:17;;;;;;;;;;;;;;;8.58;50.39;103131.94;6244001;23;19912;-86
2023/01/22 08:54:43;;;;;;;;;;;;;;;8.59;50.25;103138.94;6243053;23;19908;-86
2023/01/22 08:57:08;;;;;;;;;;;;;;;8.57;50.43;103135.63;6242237;23;19912;-86
2023/01/22 08:59:34;;;;;;;;;;;;;;;8.57;50.36;103142.81;6242884;22;19907;-85
2023/01/22 09:02:00;;;;;;;;;;;;;;;8.57;50.55;103151.66;6242568;23;19969;-86
2023/01/22 09:04:25;;;;;;;;;;;;;;;8.58;50.51;103152.50;6241836;23;20213;-86
2023/01/22 09:06:51;;;;;;;;;;;;;;;8.56;50.37;103158.00;6238321;23;19916;-85
2023/01/22 09:09:17;;;;;;;;;;;;;;;8.56;50.56;103160.69;6239121;22;20519;-86
2023/01/22 09:11:45;;;;;;;;;;;;;;;8.58;50.62;103169.34;6242218;23;19917;-86
2023/01/22 09:14:11;;;;;;;;;;;;;;;8.60;50.29;103172.69;6240136;23;20374;-86
2023/01/22 09:16:36;;;;;;;;;;;;;;;8.62;50.21;103175.22;6242475;23;19907;-85
2023/01/22 09:19:01;;;;;;;;;;;;;;;8.61;50.24;103166.31;6241116;22;20343;-85
2023/01/22 09:21:27;;;;;;;;;;;;;;;8.61;50.36;103177.00;6241793;23;20612;-86
2023/01/22 09:23:52;;;;;;;;;;;;;;;8.61;50.36;103174.34;6240251;23;20383;-86
2023/01/22 09:26:18;;;;;;;;;;;;;;;8.61;50.29;103174.34;6241134;23;19957;-85
2023/01/22 09:28:43;;;;;;;;;;;;;;;8.62;50.18;103175.22;6241141;22;19915;-86
2023/01/22 09:31:11;;;;;;;;;;;;;;;8.62;50.28;103170.69;6240819;23;19934;-86
2023/01/22 09:33:36;;;;;;;;;;;;;;;8.60;50.43;103171.84;6241096;23;19908;-86
2023/01/22 09:36:08;;;;;;;;;;;;;;;8.59;50.17;103168.34;6241090;23;19961;-86
2023/01/22 09:38:33;;;;;;;;;;;;;;;8.60;50.38;103170.00;6240598;22;20629;-86
2023/01/22 09:41:17;;;;;;;;;;;;;;;8.62;50.63;103170.69;6238428;23;19998;-86
2023/01/22 09:43:48;;;;;;;;;;;;;;;8.63;50.20;103176.88;6239646;23;20221;-86
2023/01/22 09:46:20;;;;;;;;;;;;;;;8.62;50.30;103164.53;6238272;23;19912;-86
2023/01/22 09:48:48;;;;;;;;;;;;;;;8.64;50.11;103171.34;6240372;22;20242;-86
2023/01/22 09:51:14;;;;;;;;;;;;;;;8.65;50.46;103178.34;6241017;23;20593;-86
2023/01/22 09:53:41;;;;;;;;;;;;;;;8.65;50.15;103181.03;6238045;23;19959;-85
2023/01/22 09:56:12;;;;;;;;;;;;;;;8.65;50.61;103178.34;6211972;23;19915;-85
2023/01/22 09:58:38;;;;;;;;;;;;;;;8.66;50.53;103176.50;6238747;22;19912;-86
2023/01/22 10:01:05;;;;;;;;;;;;;;;8.66;50.58;103172.00;6240223;23;19933;-85
2023/01/22 10:03:41;;;;;;;;;;;;;;;8.69;50.23;103176.16;6239749;23;19908;-86
2023/01/22 10:06:20;;;;;;;;;;;;;;;8.67;50.46;103173.66;6239123;23;19911;-86
2023/01/22 10:08:45;;;;;;;;;;;;;;;8.70;50.38;103177.81;6239767;22;19912;-86
2023/01/22 10:11:11;;;;;;;;;;;;;;;8.73;50.22;103180.13;6232538;22;19977;-86
2023/01/22 10:13:37;;;;;;;;;;;;;;;8.75;50.24;103183.47;6232076;22;19919;-86
2023/01/22 10:16:03;;;;;;;;;;;;;;;8.75;50.09;103183.47;6236571;22;19915;-87
2023/01/22 10:18:51;;;;;;;;;;;;;;;8.77;50.19;103184.13;6237358;22;20331;-86
2023/01/22 10:21:18;;;;;;;;;;;;;;;8.77;50.15;103184.94;6215965;22;19912;-87
2023/01/22 10:23:44;;;;;;;;;;;;;;;8.81;50.28;103184.63;6206043;23;19916;-85
2023/01/22 10:26:24;;;;;;;;;;;;;;;8.84;50.56;103178.91;6202942;23;19916;-85
2023/01/22 10:28:54;;;;;;;;;;;;;;;8.87;50.22;103183.91;6205517;23;19939;-85
2023/01/22 10:31:25;;;;;;;;;;;;;;;8.89;50.11;103192.56;6204984;23;19912;-85
2023/01/22 10:33:55;;;;;;;;;;;;;;;8.90;50.08;103188.88;6206908;23;19912;-85
2023/01/22 10:36:20;;;;;;;;;;;;;;;8.92;50.44;103190.38;6206592;23;19911;-85
2023/01/22 10:38:46;;;;;;;;;;;;;;;8.93;49.95;103184.00;6205642;23;20096;-85
2023/01/22 10:41:19;;;;;;;;;;;;;;;8.95;50.26;103191.84;6205355;23;19912;-85
2023/01/22 10:43:47;;;;;;;;;;;;;;;8.97;50.07;103184.47;6205824;23;19920;-85
2023/01/22 10:46:17;;;;;;;;;;;;;;;8.99;50.28;103195.84;6205883;23;19919;-85
2023/01/22 10:48:42;;;;;;;;;;;;;;;9.01;50.39;103191.16;6203951;23;19908;-85
2023/01/22 10:51:13;;;;;;;;;;;;;;;9.02;50.18;103184.81;6206417;23;19915;-85
2023/01/22 10:53:53;;;;;;;;;;;;;;;9.03;50.35;103189.13;6208152;23;19931;-84
2023/01/22 10:56:36;;;;;;;;;;;;;;;9.04;50.24;103193.47;6207019;23;19965;-85
2023/01/22 10:59:03;;;;;;;;;;;;;;;9.05;50.45;103187.13;6206452;23;19912;-85
2023/01/22 11:01:34;;;;;;;;;;;;;;;9.08;50.34;103189.44;6207237;23;19986;-85
2023/01/22 11:04:26;;;;;;;;;;;;;;;9.07;50.14;103187.75;6206016;23;19927;-85
2023/01/22 11:06:53;;;;;;;;;;;;;;;9.07;49.90;103185.09;6199652;23;19966;-85
2023/01/22 11:09:19;;;;;;;;;;;;;;;9.08;50.35;103192.94;6205731;23;19916;-85
2023/01/22 11:11:48;;;;;;;;;;;;;;;9.08;50.11;103184.06;6234136;23;19915;-85
2023/01/22 11:14:17;;;;;;;;;;;;;;;9.08;50.07;103187.59;6235612;23;20594;-85
2023/01/22 11:16:45;;;;;;;;;;;;;;;9.10;49.97;103182.06;6239038;23;19911;-85
2023/01/22 11:19:12;;;;;;;;;;;;;;;9.12;50.05;103182.69;6238991;23;19912;-85
2023/01/22 11:21:41;;;;;;;;;;;;;;;9.14;50.02;103177.16;6240085;22;19907;-85
2023/01/22 11:24:18;;;;;;;;;;;;;;;9.15;50.37;103171.63;6238411;23;20090;-85
2023/01/22 11:26:52;;;;;;;;;;;;;;;9.17;50.05;103172.31;6238812;23;20302;-84
2023/01/22 11:29:33;;;;;;;;;;;;;;;9.18;50.07;103173.97;6238874;23;20250;-85
2023/01/22 11:32:04;;;;;;;;;;;;;;;9.18;50.07;103176.66;6211554;23;19914;-85
2023/01/22 11:34:53;;;;;;;;;;;;;;;9.19;50.35;103177.50;6236642;23;19911;-85
2023/01/22 11:37:25;;;;;;;;;;;;;;;9.19;50.15;103183.66;6238040;23;19915;-85
2023/01/22 11:39:56;;;;;;;;;;;;;;;9.21;50.03;103178.97;6236460;22;19945;-85
2023/01/22 11:42:21;;;;;;;;;;;;;;;9.23;50.00;103187.63;6237811;23;19911;-85
2023/01/22 11:45:02;;;;;;;;;;;;;;;9.25;49.83;103195.47;6237715;23;19999;-85
2023/01/22 11:47:34;;;;;;;;;;;;;;;9.25;50.26;103188.28;6240293;23;19915;-85
2023/01/22 11:50:05;;;;;;;;;;;;;;;9.28;50.07;103189.78;6240403;22;19912;-85
2023/01/22 11:52:37;;;;;;;;;;;;;;;9.29;50.02;103189.59;6237259;23;20005;-85
2023/01/22 11:55:21;;;;;;;;;;;;;;;9.31;50.19;103189.41;6238453;23;19911;-85
2023/01/22 11:58:00;;;;;;;;;;;;;;;9.32;50.10;103191.91;6238754;23;20359;-84
2023/01/22 12:00:28;;;;;;;;;;;;;;;9.32;49.91;103183.03;6240433;22;19907;-86
2023/01/22 12:03:13;;;;;;;;;;;;;;;9.33;50.10;103187.38;6239264;23;20193;-86
2023/01/22 12:05:42;;;;;;;;;;;;;;;9.31;49.77;103187.56;6238017;23;19961;-85
2023/01/22 12:08:11;;;;;;;;;;;;;;;9.31;50.14;103182.22;6236923;23;20242;-85
2023/01/22 12:10:55;;;;;;;;;;;;;;;9.32;49.89;103188.38;6213233;23;20386;-86
2023/01/22 12:13:39;;;;;;;;;;;;;;;9.32;49.98;103189.22;6237282;23;19907;-86
2023/01/22 12:16:04;;;;;;;;;;;;;;;9.34;50.23;103194.41;6239372;23;19916;-85
2023/01/22 12:18:47;;;;;;;;;;;;;;;9.35;50.12;103190.72;6238059;23;20284;-85
2023/01/22 12:21:26;;;;;;;;;;;;;;;9.36;50.01;103189.72;6238817;22;19911;-86
2023/01/22 12:24:20;;;;;;;;;;;;;;;9.36;50.12;103190.56;6235731;23;19916;-86
2023/01/22 12:26:49;;;;;;;;;;;;;;;9.35;50.14;103194.25;6127319;23;20393;-86
2023/01/22 12:29:28;;;;;;;;;;;;;;;9.35;49.91;103188.88;6237368;23;20298;-86
2023/01/22 12:32:08;;;;;;;;;;;;;;;9.35;49.96;103183.53;6238390;22;19919;-85
2023/01/22 12:34:52;;;;;;;;;;;;;;;9.34;50.02;103187.22;6234513;23;19977;-86
2023/01/22 12:37:19;;;;;;;;;;;;;;;9.33;50.18;103185.53;6238583;23;19907;-86
2023/01/22 12:39:55;;;;;;;;;;;;;;;9.35;50.39;103188.88;6237857;22;19982;-85
2023/01/22 12:42:31;;;;;;;;;;;;;;;9.35;50.13;103188.88;6238962;23;19914;-85
2023/01/22 12:45:19;;;;;;;;;;;;;;;9.33;49.98;103188.22;6236941;23;19915;-85
2023/01/22 12:47:44;;;;;;;;;;;;;;;9.34;50.21;103189.06;6237848;23;19913;-86
2023/01/22 12:50:20;;;;;;;;;;;;;;;9.36;50.49;103195.91;6238251;22;19986;-85
2023/01/22 12:52:56;;;;;;;;;;;;;;;9.38;50.15;103193.88;6237273;23;19911;-85
2023/01/22 12:55:21;;;;;;;;;;;;;;;9.39;50.03;103194.69;6237542;23;19912;-85
2023/01/22 12:57:47;;;;;;;;;;;;;;;9.41;50.16;103197.19;6237513;23;19923;-85
2023/01/22 13:00:26;;;;;;;;;;;;;;;9.43;50.03;103200.53;6238276;22;19908;-85
2023/01/22 13:02:52;;;;;;;;;;;;;;;9.42;50.32;103188.97;6236302;23;19912;-85